sensor_id;sensor_type;location;lat;lon;timestamp;P1;durP1;ratioP1;P2;durP2;ratioP2
21822;SDS011;11074;48.596;9.238;2023-12-20T00:01:35;3.35;;;1.88;;
21822;SDS011;11074;48.596;9.238;2023-12-20T00:04:01;3.10;;;2.03;;
21822;SDS011;11074;48.596;9.238;2023-12-20T00:06:28;2.63;;;1.80;;
21822;SDS011;11074;48.596;9.238;2023-12-20T00:08:54;2.72;;;1.75;;
21822;SDS011;11074;48.596;9.238;2023-12-20T00:11:20;3.47;;;2.00;;
21822;SDS011;11074;48.596;9.238;2023-12-20T00:13:46;2.60;;;1.77;;
21822;SDS011;11074;48.596;9.238;2023-12-20T00:16:11;3.75;;;1.98;;
21822;SDS011;11074;48.596;9.238;2023-12-20T00:18:37;4.80;;;2.00;;
21822;SDS011;11074;48.596;9.238;2023-12-20T00:21:03;2.40;;;1.73;;
21822;SDS011;11074;48.596;9.238;2023-12-20T00:23:29;2.80;;;1.70;;
21822;SDS011;11074;48.596;9.238;2023-12-20T00:25:54;3.03;;;1.75;;
21822;SDS011;11074;48.596;9.238;2023-12-20T00:28:20;2.42;;;1.63;;
21822;SDS011;11074;48.596;9.238;2023-12-20T00:30:46;2.30;;;1.50;;
21822;SDS011;11074;48.596;9.238;2023-12-20T00:33:11;3.80;;;1.48;;
21822;SDS011;11074;48.596;9.238;2023-12-20T00:35:37;3.47;;;1.42;;
21822;SDS011;11074;48.596;9.238;2023-12-20T00:38:03;2.38;;;1.52;;
21822;SDS011;11074;48.596;9.238;2023-12-20T00:40:30;2.92;;;1.67;;
21822;SDS011;11074;48.596;9.238;2023-12-20T00:42:55;3.35;;;2.05;;
21822;SDS011;11074;48.596;9.238;2023-12-20T00:45:21;2.80;;;1.58;;
21822;SDS011;11074;48.596;9.238;2023-12-20T00:47:47;3.90;;;1.60;;
21822;SDS011;11074;48.596;9.238;2023-12-20T00:50:12;4.47;;;1.70;;
21822;SDS011;11074;48.596;9.238;2023-12-20T00:52:38;2.97;;;1.70;;
21822;SDS011;11074;48.596;9.238;2023-12-20T00:55:04;4.38;;;1.65;;
21822;SDS011;11074;48.596;9.238;2023-12-20T00:57:30;3.15;;;1.65;;
21822;SDS011;11074;48.596;9.238;2023-12-20T00:59:56;2.88;;;1.90;;
21822;SDS011;11074;48.596;9.238;2023-12-20T01:02:22;2.55;;;1.60;;
21822;SDS011;11074;48.596;9.238;2023-12-20T01:04:47;4.28;;;1.80;;
21822;SDS011;11074;48.596;9.238;2023-12-20T01:07:13;2.97;;;1.90;;
21822;SDS011;11074;48.596;9.238;2023-12-20T01:09:38;2.53;;;1.70;;
21822;SDS011;11074;48.596;9.238;2023-12-20T01:12:04;3.35;;;1.98;;
21822;SDS011;11074;48.596;9.238;2023-12-20T01:14:30;3.33;;;1.40;;
21822;SDS011;11074;48.596;9.238;2023-12-20T01:16:56;1.85;;;1.20;;
21822;SDS011;11074;48.596;9.238;2023-12-20T01:19:21;2.55;;;1.20;;
21822;SDS011;11074;48.596;9.238;2023-12-20T01:21:48;2.13;;;0.93;;
21822;SDS011;11074;48.596;9.238;2023-12-20T01:24:14;2.03;;;0.90;;
21822;SDS011;11074;48.596;9.238;2023-12-20T01:26:40;1.95;;;1.23;;
21822;SDS011;11074;48.596;9.238;2023-12-20T01:29:05;1.80;;;0.93;;
21822;SDS011;11074;48.596;9.238;2023-12-20T01:31:31;2.22;;;1.17;;
21822;SDS011;11074;48.596;9.238;2023-12-20T01:33:57;1.40;;;1.00;;
21822;SDS011;11074;48.596;9.238;2023-12-20T01:36:22;3.13;;;1.20;;
21822;SDS011;11074;48.596;9.238;2023-12-20T01:38:48;1.50;;;1.13;;
21822;SDS011;11074;48.596;9.238;2023-12-20T01:41:14;1.60;;;0.98;;
21822;SDS011;11074;48.596;9.238;2023-12-20T01:43:40;3.15;;;1.23;;
21822;SDS011;11074;48.596;9.238;2023-12-20T01:46:05;1.88;;;1.10;;
21822;SDS011;11074;48.596;9.238;2023-12-20T01:48:32;2.97;;;1.35;;
21822;SDS011;11074;48.596;9.238;2023-12-20T01:50:58;4.32;;;1.23;;
21822;SDS011;11074;48.596;9.238;2023-12-20T01:53:25;1.77;;;1.10;;
21822;SDS011;11074;48.596;9.238;2023-12-20T01:55:54;1.20;;;1.00;;
21822;SDS011;11074;48.596;9.238;2023-12-20T01:58:22;3.17;;;0.82;;
21822;SDS011;11074;48.596;9.238;2023-12-20T02:00:49;1.55;;;0.90;;
21822;SDS011;11074;48.596;9.238;2023-12-20T02:03:16;1.30;;;0.80;;
21822;SDS011;11074;48.596;9.238;2023-12-20T02:05:43;1.95;;;1.10;;
21822;SDS011;11074;48.596;9.238;2023-12-20T02:08:11;3.80;;;1.00;;
21822;SDS011;11074;48.596;9.238;2023-12-20T02:10:37;1.23;;;0.88;;
21822;SDS011;11074;48.596;9.238;2023-12-20T02:13:03;1.13;;;0.80;;
21822;SDS011;11074;48.596;9.238;2023-12-20T02:15:29;1.33;;;0.90;;
21822;SDS011;11074;48.596;9.238;2023-12-20T02:17:55;2.65;;;1.20;;
21822;SDS011;11074;48.596;9.238;2023-12-20T02:20:21;2.35;;;1.25;;
21822;SDS011;11074;48.596;9.238;2023-12-20T02:22:47;2.40;;;1.30;;
21822;SDS011;11074;48.596;9.238;2023-12-20T02:25:12;1.90;;;1.30;;
21822;SDS011;11074;48.596;9.238;2023-12-20T02:27:38;3.42;;;1.52;;
21822;SDS011;11074;48.596;9.238;2023-12-20T02:30:05;2.25;;;1.40;;
21822;SDS011;11074;48.596;9.238;2023-12-20T02:32:31;3.08;;;1.50;;
21822;SDS011;11074;48.596;9.238;2023-12-20T02:34:57;2.30;;;1.25;;
21822;SDS011;11074;48.596;9.238;2023-12-20T02:37:23;2.30;;;1.50;;
21822;SDS011;11074;48.596;9.238;2023-12-20T02:39:49;2.78;;;1.50;;
21822;SDS011;11074;48.596;9.238;2023-12-20T02:42:14;2.45;;;1.48;;
21822;SDS011;11074;48.596;9.238;2023-12-20T02:44:40;1.90;;;1.42;;
21822;SDS011;11074;48.596;9.238;2023-12-20T02:47:06;2.88;;;1.50;;
21822;SDS011;11074;48.596;9.238;2023-12-20T02:49:31;2.58;;;1.67;;
21822;SDS011;11074;48.596;9.238;2023-12-20T02:51:57;1.92;;;1.50;;
21822;SDS011;11074;48.596;9.238;2023-12-20T02:54:23;2.60;;;1.38;;
21822;SDS011;11074;48.596;9.238;2023-12-20T02:56:48;2.63;;;1.42;;
21822;SDS011;11074;48.596;9.238;2023-12-20T02:59:15;2.67;;;1.58;;
21822;SDS011;11074;48.596;9.238;2023-12-20T03:01:44;2.30;;;1.60;;
21822;SDS011;11074;48.596;9.238;2023-12-20T03:04:14;2.85;;;1.42;;
21822;SDS011;11074;48.596;9.238;2023-12-20T03:06:39;2.67;;;1.60;;
21822;SDS011;11074;48.596;9.238;2023-12-20T03:09:05;2.20;;;1.60;;
21822;SDS011;11074;48.596;9.238;2023-12-20T03:11:31;2.63;;;1.40;;
21822;SDS011;11074;48.596;9.238;2023-12-20T03:13:57;2.35;;;1.42;;
21822;SDS011;11074;48.596;9.238;2023-12-20T03:16:22;2.38;;;1.42;;
21822;SDS011;11074;48.596;9.238;2023-12-20T03:18:48;3.45;;;2.17;;
21822;SDS011;11074;48.596;9.238;2023-12-20T03:21:14;2.53;;;1.77;;
21822;SDS011;11074;48.596;9.238;2023-12-20T03:23:40;1.98;;;1.52;;
21822;SDS011;11074;48.596;9.238;2023-12-20T03:26:07;4.35;;;1.83;;
21822;SDS011;11074;48.596;9.238;2023-12-20T03:28:33;3.35;;;1.70;;
21822;SDS011;11074;48.596;9.238;2023-12-20T03:30:59;1.75;;;1.40;;
21822;SDS011;11074;48.596;9.238;2023-12-20T03:33:24;7.80;;;1.90;;
21822;SDS011;11074;48.596;9.238;2023-12-20T03:35:50;2.28;;;1.60;;
21822;SDS011;11074;48.596;9.238;2023-12-20T03:38:16;2.58;;;1.35;;
